createdAt,value
2023-03-18T00:08:19.588Z,978.42
2023-03-18T00:20:19.983Z,978.44
2023-03-18T00:32:20.456Z,978.40
2023-03-18T00:44:20.965Z,978.36
2023-03-18T00:56:21.376Z,978.31
2023-03-18T01:08:21.838Z,978.26
2023-03-18T01:20:22.356Z,978.27
2023-03-18T01:32:22.873Z,978.18
2023-03-18T01:44:23.181Z,978.08
2023-03-18T01:56:26.404Z,977.99
2023-03-18T02:08:24.056Z,977.96
2023-03-18T02:20:24.959Z,978.00
2023-03-18T02:32:25.000Z,978.03
2023-03-18T02:44:25.460Z,977.98
2023-03-18T02:56:25.889Z,978.02
2023-03-18T03:08:26.357Z,978.03
2023-03-18T03:20:26.789Z,978.05
2023-03-18T03:32:27.244Z,977.97
2023-03-18T03:44:29.900Z,978.15
2023-03-18T03:56:28.181Z,978.22
2023-03-18T04:08:28.607Z,978.27
2023-03-18T04:20:31.520Z,978.39
2023-03-18T04:32:29.558Z,978.39
2023-03-18T04:44:29.949Z,978.52
2023-03-18T04:56:30.384Z,978.77
2023-03-18T05:08:30.840Z,978.89
2023-03-18T05:20:31.316Z,979.00
2023-03-18T05:32:33.501Z,979.00
2023-03-18T05:44:34.905Z,979.06
2023-03-18T05:56:32.656Z,979.13
2023-03-18T06:08:33.108Z,979.24
2023-03-18T06:20:33.603Z,979.27
2023-03-18T06:32:34.196Z,979.21
2023-03-18T06:44:34.471Z,979.43
2023-03-18T06:56:37.639Z,979.26
2023-03-18T07:08:35.394Z,979.35
2023-03-18T07:20:35.832Z,979.45
2023-03-18T07:32:36.243Z,979.44
2023-03-18T07:44:39.429Z,979.63
2023-03-18T07:56:37.590Z,979.53
2023-03-18T08:08:37.629Z,979.58
2023-03-18T08:20:38.166Z,979.60
2023-03-18T08:32:38.614Z,979.70
2023-03-18T08:44:39.035Z,979.66
2023-03-18T08:56:39.448Z,979.64
2023-03-18T09:08:39.869Z,979.61
2023-03-18T09:20:40.375Z,979.54
2023-03-18T09:32:40.870Z,979.59
2023-03-18T09:44:41.249Z,979.49
2023-03-18T09:56:41.736Z,979.56
2023-03-18T10:08:42.178Z,979.57
2023-03-18T10:20:42.601Z,979.54
2023-03-18T10:32:49.935Z,979.50
2023-03-18T10:44:43.529Z,979.61
2023-03-18T10:56:43.980Z,979.55
2023-03-18T11:08:44.465Z,979.44
2023-03-18T11:20:44.925Z,979.48
2023-03-18T11:32:45.462Z,979.40
2023-03-18T11:44:45.792Z,979.26
2023-03-18T11:56:46.250Z,979.18
2023-03-18T12:08:46.746Z,979.12
2023-03-18T12:20:47.178Z,978.98
2023-03-18T12:32:47.684Z,978.74
2023-03-18T12:44:48.077Z,978.63
2023-03-18T12:56:48.498Z,978.63
2023-03-18T13:08:48.996Z,978.60
2023-03-18T13:20:49.456Z,978.80
2023-03-18T13:32:49.945Z,978.59
2023-03-18T13:44:50.354Z,978.52
2023-03-18T13:56:50.810Z,978.51
2023-03-18T14:08:51.292Z,978.45
2023-03-18T14:20:51.758Z,978.43
2023-03-18T14:32:52.253Z,978.28
2023-03-18T14:44:52.656Z,978.20
2023-03-18T14:56:53.129Z,978.19
2023-03-18T15:08:53.591Z,978.01
2023-03-18T15:20:54.002Z,978.01
2023-03-18T15:32:54.535Z,978.08
2023-03-18T15:44:54.925Z,977.99
2023-03-18T15:56:55.458Z,978.09
2023-03-18T16:08:55.869Z,978.18
2023-03-18T16:20:56.296Z,978.26
2023-03-18T16:32:56.787Z,978.28
2023-03-18T16:44:59.489Z,978.39
2023-03-18T16:56:57.680Z,978.45
2023-03-18T17:08:58.102Z,978.34
2023-03-18T17:21:00.261Z,978.48
2023-03-18T17:32:59.100Z,978.61
2023-03-18T17:44:59.485Z,978.68
2023-03-18T17:56:59.938Z,978.72
2023-03-18T18:09:00.685Z,978.84
2023-03-18T18:21:00.845Z,978.77
2023-03-18T18:33:01.318Z,978.94
2023-03-18T18:45:01.757Z,978.88
2023-03-18T18:57:02.194Z,978.92
2023-03-18T19:09:02.675Z,978.89
2023-03-18T19:21:03.104Z,978.93
2023-03-18T19:33:03.571Z,978.95
2023-03-18T19:45:06.701Z,978.95
2023-03-18T19:57:04.470Z,978.87
2023-03-18T20:09:04.889Z,978.79
2023-03-18T20:21:05.360Z,978.87
2023-03-18T20:33:05.893Z,978.87
2023-03-18T20:45:06.297Z,978.93
2023-03-18T20:57:06.735Z,978.85
2023-03-18T21:09:07.184Z,979.02
2023-03-18T21:21:07.624Z,978.93
2023-03-18T21:33:10.834Z,978.86
2023-03-18T21:45:08.517Z,978.85
2023-03-18T21:57:08.971Z,978.72
2023-03-18T22:09:09.433Z,978.69
2023-03-18T22:21:12.632Z,978.59
2023-03-18T22:33:10.364Z,978.55
2023-03-18T22:45:12.515Z,978.48
2023-03-18T22:57:11.254Z,978.56
2023-03-18T23:09:11.722Z,978.51
2023-03-18T23:21:14.845Z,978.49
2023-03-18T23:33:12.641Z,978.43
2023-03-18T23:45:13.057Z,978.40
2023-03-18T23:57:16.219Z,978.47
